createdAt,value
2023-05-07T00:02:08.509Z,2.83
2023-05-07T00:04:38.526Z,2.90
2023-05-07T00:07:05.442Z,2.92
2023-05-07T00:09:42.208Z,2.95
2023-05-07T00:12:08.647Z,3.00
2023-05-07T00:14:35.210Z,3.70
2023-05-07T00:17:01.708Z,3.92
2023-05-07T00:19:41.352Z,3.75
2023-05-07T00:22:09.123Z,3.25
2023-05-07T00:24:35.631Z,3.20
2023-05-07T00:27:02.102Z,4.13
2023-05-07T00:29:28.662Z,3.97
2023-05-07T00:31:57.133Z,3.55
2023-05-07T00:34:23.710Z,4.10
2023-05-07T00:36:50.228Z,5.10
2023-05-07T00:39:22.586Z,4.90
2023-05-07T00:41:49.061Z,4.25
2023-05-07T00:44:19.677Z,4.53
2023-05-07T00:46:46.403Z,4.60
2023-05-07T00:49:14.024Z,4.20
2023-05-07T00:51:40.501Z,4.13
2023-05-07T00:54:07.042Z,4.80
2023-05-07T00:56:33.862Z,4.72
2023-05-07T00:59:09.070Z,4.90
2023-05-07T01:01:35.885Z,4.45
2023-05-07T01:04:02.757Z,4.65
2023-05-07T01:06:31.207Z,4.93
2023-05-07T01:08:59.356Z,5.47
2023-05-07T01:11:26.565Z,5.45
2023-05-07T01:14:00.287Z,4.90
2023-05-07T01:16:27.867Z,5.45
2023-05-07T01:18:54.404Z,5.22
2023-05-07T01:21:27.497Z,5.00
2023-05-07T01:23:55.801Z,4.90
2023-05-07T01:26:23.140Z,4.88
2023-05-07T01:28:49.596Z,5.22
2023-05-07T01:31:18.113Z,5.03
2023-05-07T01:33:46.361Z,5.13
2023-05-07T01:36:14.339Z,5.45
2023-05-07T01:38:43.406Z,5.40
2023-05-07T01:41:10.007Z,5.28
2023-05-07T01:43:36.493Z,5.97
2023-05-07T01:46:03.976Z,5.40
2023-05-07T01:48:32.072Z,5.78
2023-05-07T01:50:59.217Z,5.20
2023-05-07T01:53:28.649Z,4.32
2023-05-07T01:55:55.272Z,4.78
2023-05-07T01:58:22.048Z,5.05
2023-05-07T02:00:58.573Z,5.13
2023-05-07T02:03:25.161Z,5.40
2023-05-07T02:05:51.666Z,5.05
2023-05-07T02:08:19.221Z,5.15
2023-05-07T02:10:45.659Z,5.32
2023-05-07T02:13:12.118Z,4.72
2023-05-07T02:15:38.632Z,4.90
2023-05-07T02:18:10.222Z,5.50
2023-05-07T02:20:39.974Z,5.82
2023-05-07T02:23:06.417Z,5.15
2023-05-07T02:25:33.944Z,5.85
2023-05-07T02:28:00.501Z,5.28
2023-05-07T02:30:27.132Z,5.03
2023-05-07T02:33:04.741Z,4.88
2023-05-07T02:35:31.448Z,4.35
2023-05-07T02:37:57.905Z,4.50
2023-05-07T02:40:24.396Z,5.35
2023-05-07T02:42:50.857Z,5.03
2023-05-07T02:45:17.402Z,5.63
2023-05-07T02:47:43.882Z,5.30
2023-05-07T02:50:16.510Z,5.13
2023-05-07T02:52:42.999Z,4.65
2023-05-07T02:55:09.800Z,6.30
2023-05-07T02:57:36.313Z,6.07
2023-05-07T03:00:20.298Z,5.43
2023-05-07T03:02:46.895Z,5.65
2023-05-07T03:05:13.707Z,5.97
2023-05-07T03:07:40.379Z,5.43
2023-05-07T03:10:07.551Z,5.40
2023-05-07T03:12:34.184Z,5.43
2023-05-07T03:15:00.674Z,5.15
2023-05-07T03:17:27.273Z,4.95
2023-05-07T03:19:53.875Z,5.60
2023-05-07T03:22:20.458Z,5.32
2023-05-07T03:24:50.905Z,5.65
2023-05-07T03:27:17.415Z,5.55
2023-05-07T03:29:51.880Z,5.75
2023-05-07T03:32:18.424Z,5.90
2023-05-07T03:34:44.982Z,5.43
2023-05-07T03:37:11.487Z,5.93
2023-05-07T03:39:39.064Z,7.10
2023-05-07T03:42:05.661Z,6.43
2023-05-07T03:44:37.125Z,5.82
2023-05-07T03:47:04.940Z,5.90
2023-05-07T03:49:31.408Z,5.80
2023-05-07T03:52:03.990Z,4.75
2023-05-07T03:54:31.468Z,5.60
2023-05-07T03:56:57.930Z,5.40
2023-05-07T03:59:24.436Z,5.65
2023-05-07T04:01:51.111Z,5.13
2023-05-07T04:04:17.777Z,5.40
2023-05-07T04:06:44.329Z,5.75
2023-05-07T04:09:11.270Z,6.50
2023-05-07T04:11:37.786Z,5.70
2023-05-07T04:14:04.239Z,6.18
2023-05-07T04:16:32.893Z,6.72
2023-05-07T04:18:59.406Z,5.53
2023-05-07T04:21:26.852Z,5.78
2023-05-07T04:23:53.399Z,6.85
2023-05-07T04:26:19.945Z,5.90
2023-05-07T04:28:46.644Z,5.63
2023-05-07T04:31:13.082Z,6.75
2023-05-07T04:33:39.583Z,6.65
2023-05-07T04:36:06.222Z,6.63
2023-05-07T04:38:34.830Z,6.25
2023-05-07T04:41:06.327Z,6.35
2023-05-07T04:43:33.050Z,6.03
2023-05-07T04:45:59.953Z,6.60
2023-05-07T04:48:27.492Z,6.40
2023-05-07T04:50:54.071Z,6.30
2023-05-07T04:53:21.105Z,6.35
2023-05-07T04:55:47.793Z,6.30
2023-05-07T04:58:16.748Z,6.38
2023-05-07T05:00:43.556Z,7.75
2023-05-07T05:03:17.013Z,6.40
2023-05-07T05:05:43.532Z,7.55
2023-05-07T05:08:10.087Z,7.40
2023-05-07T05:10:36.547Z,6.93
2023-05-07T05:13:03.087Z,6.93
2023-05-07T05:15:33.758Z,7.28
2023-05-07T05:18:00.603Z,9.10
2023-05-07T05:20:27.335Z,8.65
2023-05-07T05:22:53.833Z,7.97
2023-05-07T05:25:20.592Z,7.90
2023-05-07T05:27:47.108Z,6.80
2023-05-07T05:30:14.078Z,7.20
2023-05-07T05:32:40.629Z,7.80
2023-05-07T05:35:07.857Z,7.60
2023-05-07T05:37:34.758Z,9.05
2023-05-07T05:40:01.244Z,7.63
2023-05-07T05:42:31.708Z,7.50
2023-05-07T05:44:58.157Z,9.48
2023-05-07T05:47:24.685Z,7.90
2023-05-07T05:49:51.122Z,8.45
2023-05-07T05:52:18.214Z,9.00
2023-05-07T05:54:44.710Z,8.02
2023-05-07T05:57:11.883Z,8.45
2023-05-07T05:59:38.451Z,7.68
2023-05-07T06:02:05.051Z,7.60
2023-05-07T06:04:33.554Z,7.72
2023-05-07T06:07:00.058Z,8.38
2023-05-07T06:09:26.702Z,8.60
2023-05-07T06:11:53.308Z,8.90
2023-05-07T06:14:25.906Z,9.55
2023-05-07T06:16:52.404Z,8.50
2023-05-07T06:19:24.047Z,9.05
2023-05-07T06:24:22.358Z,8.35
2023-05-07T06:29:16.439Z,8.35
2023-05-07T06:31:44.015Z,9.30
2023-05-07T06:34:11.227Z,9.05
2023-05-07T06:36:37.737Z,7.97
2023-05-07T06:39:04.176Z,8.65
2023-05-07T06:41:30.609Z,8.05
2023-05-07T06:43:57.087Z,8.82
2023-05-07T06:46:23.672Z,9.07
2023-05-07T06:48:50.208Z,8.32
2023-05-07T06:51:16.639Z,8.85
2023-05-07T06:53:45.167Z,8.43
2023-05-07T06:56:11.866Z,7.88
2023-05-07T06:58:46.272Z,7.95
2023-05-07T07:01:12.737Z,7.72
2023-05-07T07:03:41.494Z,7.65
2023-05-07T07:06:08.040Z,9.40
2023-05-07T07:08:35.597Z,7.75
2023-05-07T07:11:02.079Z,7.95
2023-05-07T07:13:34.637Z,7.95
2023-05-07T07:16:01.563Z,8.32
2023-05-07T07:18:28.428Z,7.82
2023-05-07T07:20:54.870Z,7.72
2023-05-07T07:23:21.567Z,7.80
2023-05-07T07:25:49.856Z,8.57
2023-05-07T07:28:17.346Z,8.80
2023-05-07T07:30:51.818Z,9.43
2023-05-07T07:33:18.284Z,9.70
2023-05-07T07:35:44.750Z,8.63
2023-05-07T07:38:11.312Z,8.50
2023-05-07T07:40:38.140Z,9.07
2023-05-07T07:43:04.671Z,9.20
2023-05-07T07:45:38.178Z,8.63
2023-05-07T07:48:05.644Z,8.90
2023-05-07T07:50:44.586Z,9.07
2023-05-07T07:53:12.436Z,8.38
2023-05-07T07:55:42.132Z,8.40
2023-05-07T07:58:10.720Z,7.93
2023-05-07T08:00:37.553Z,8.50
2023-05-07T08:03:04.455Z,9.00
2023-05-07T08:05:31.262Z,6.55
2023-05-07T08:07:57.771Z,7.28
2023-05-07T08:10:24.332Z,7.97
2023-05-07T08:12:51.453Z,7.90
2023-05-07T08:15:19.116Z,8.75
2023-05-07T08:17:45.629Z,7.90
2023-05-07T08:20:13.411Z,8.23
2023-05-07T08:22:45.240Z,8.48
2023-05-07T08:25:13.756Z,7.88
2023-05-07T08:27:40.280Z,7.13
2023-05-07T08:30:07.440Z,8.23
2023-05-07T08:32:33.989Z,8.38
2023-05-07T08:35:01.004Z,7.53
2023-05-07T08:37:28.598Z,6.95
2023-05-07T08:39:55.051Z,7.70
2023-05-07T08:42:25.976Z,8.02
2023-05-07T08:44:56.634Z,7.40
2023-05-07T08:47:31.260Z,8.10
2023-05-07T08:49:57.829Z,7.53
2023-05-07T08:52:24.360Z,7.50
2023-05-07T08:54:51.142Z,6.65
2023-05-07T08:57:17.661Z,6.50
2023-05-07T08:59:44.176Z,6.53
2023-05-07T09:02:12.380Z,6.60
2023-05-07T09:04:39.092Z,6.97
2023-05-07T09:07:06.429Z,6.80
2023-05-07T09:09:36.041Z,6.57
2023-05-07T09:12:03.237Z,7.63
2023-05-07T09:14:32.746Z,6.72
2023-05-07T09:17:05.367Z,6.15
2023-05-07T09:19:32.104Z,6.35
2023-05-07T09:22:00.953Z,6.32
2023-05-07T09:24:29.560Z,6.38
2023-05-07T09:27:03.311Z,6.10
2023-05-07T09:29:44.781Z,6.65
2023-05-07T09:32:11.771Z,6.57
2023-05-07T09:34:38.359Z,6.30
2023-05-07T09:37:06.394Z,6.78
2023-05-07T09:39:47.237Z,6.38
2023-05-07T09:42:17.789Z,6.68
2023-05-07T09:44:44.811Z,6.18
2023-05-07T09:47:12.785Z,5.88
2023-05-07T09:49:41.070Z,6.15
2023-05-07T09:52:09.744Z,6.85
2023-05-07T09:54:38.870Z,6.95
2023-05-07T09:57:08.014Z,5.95
2023-05-07T09:59:36.044Z,8.80
2023-05-07T10:02:05.224Z,6.82
2023-05-07T10:04:33.061Z,5.75
2023-05-07T10:07:00.801Z,6.78
2023-05-07T10:09:27.918Z,5.80
2023-05-07T10:12:00.708Z,5.75
2023-05-07T10:14:28.962Z,6.70
2023-05-07T10:16:57.390Z,6.43
2023-05-07T10:19:25.154Z,6.43
2023-05-07T10:22:03.046Z,5.50
2023-05-07T10:24:37.766Z,5.20
2023-05-07T10:27:15.399Z,6.38
2023-05-07T10:29:45.872Z,6.47
2023-05-07T10:32:38.062Z,6.27
2023-05-07T10:35:07.916Z,5.55
2023-05-07T10:37:35.294Z,5.97
2023-05-07T10:40:02.494Z,5.60
2023-05-07T10:42:29.143Z,5.53
2023-05-07T10:44:55.879Z,5.90
2023-05-07T10:47:22.444Z,5.00
2023-05-07T10:49:48.900Z,5.90
2023-05-07T10:52:22.652Z,4.90
2023-05-07T10:55:18.717Z,5.60
2023-05-07T10:57:45.405Z,4.68
2023-05-07T11:00:16.856Z,6.03
2023-05-07T11:03:00.489Z,5.25
2023-05-07T11:05:30.183Z,5.05
2023-05-07T11:08:04.497Z,4.50
2023-05-07T11:10:59.350Z,4.88
2023-05-07T11:13:46.366Z,4.38
2023-05-07T11:16:25.719Z,4.55
2023-05-07T11:18:54.975Z,3.50
2023-05-07T11:21:41.737Z,5.05
2023-05-07T11:24:11.353Z,5.00
2023-05-07T11:26:48.221Z,5.10
2023-05-07T11:29:23.370Z,4.68
2023-05-07T11:31:56.158Z,4.68
2023-05-07T11:34:27.810Z,4.40
2023-05-07T11:36:56.841Z,4.90
2023-05-07T11:39:29.476Z,4.90
2023-05-07T11:41:57.057Z,4.72
2023-05-07T11:44:23.544Z,4.32
2023-05-07T11:46:50.103Z,4.85
2023-05-07T11:49:21.757Z,4.47
2023-05-07T11:51:48.412Z,4.28
2023-05-07T11:54:18.713Z,5.22
2023-05-07T11:56:46.060Z,4.25
2023-05-07T11:59:12.588Z,3.85
2023-05-07T12:01:39.288Z,4.13
2023-05-07T12:04:06.462Z,4.25
2023-05-07T12:06:37.713Z,4.60
2023-05-07T12:09:12.549Z,3.22
2023-05-07T12:11:46.929Z,4.05
2023-05-07T12:14:13.380Z,4.38
2023-05-07T12:16:41.817Z,4.78
2023-05-07T12:19:09.970Z,4.05
2023-05-07T12:21:43.626Z,4.28
2023-05-07T12:24:10.067Z,3.60
2023-05-07T12:26:42.392Z,3.60
2023-05-07T12:29:09.070Z,3.95
2023-05-07T12:31:36.661Z,3.83
2023-05-07T12:34:03.549Z,3.75
2023-05-07T12:36:39.098Z,3.50
2023-05-07T12:39:07.027Z,2.95
2023-05-07T12:42:02.741Z,3.17
2023-05-07T12:44:33.683Z,3.10
2023-05-07T12:47:03.279Z,3.38
2023-05-07T12:49:30.951Z,2.63
2023-05-07T12:51:57.536Z,2.85
2023-05-07T12:54:42.212Z,2.67
2023-05-07T12:57:10.578Z,2.80
2023-05-07T12:59:41.599Z,2.70
2023-05-07T13:02:09.243Z,2.88
2023-05-07T13:04:36.642Z,3.10
2023-05-07T13:07:03.590Z,2.78
2023-05-07T13:09:30.431Z,2.78
2023-05-07T13:11:56.902Z,2.90
2023-05-07T13:14:23.387Z,2.95
2023-05-07T13:16:50.933Z,3.13
2023-05-07T13:19:18.466Z,3.00
2023-05-07T13:21:44.946Z,2.60
2023-05-07T13:24:11.446Z,3.10
2023-05-07T13:26:37.982Z,2.88
2023-05-07T13:29:04.443Z,2.83
2023-05-07T13:31:31.121Z,2.90
2023-05-07T13:33:59.716Z,2.80
2023-05-07T13:36:26.411Z,2.60
2023-05-07T13:39:00.545Z,2.70
2023-05-07T13:41:27.098Z,2.70
2023-05-07T13:43:53.552Z,2.83
2023-05-07T13:46:20.119Z,3.08
2023-05-07T13:48:46.698Z,3.30
2023-05-07T13:51:13.211Z,2.78
2023-05-07T13:53:40.191Z,2.80
2023-05-07T13:56:06.842Z,3.00
2023-05-07T13:58:33.596Z,2.53
2023-05-07T14:01:00.562Z,2.40
2023-05-07T14:03:27.191Z,2.75
2023-05-07T14:05:53.842Z,2.22
2023-05-07T14:08:20.924Z,2.30
2023-05-07T14:10:47.656Z,2.53
2023-05-07T14:13:14.168Z,2.42
2023-05-07T14:15:41.350Z,2.45
2023-05-07T14:18:08.032Z,2.50
2023-05-07T14:20:37.661Z,2.50
2023-05-07T14:23:04.220Z,2.40
2023-05-07T14:25:30.865Z,2.42
2023-05-07T14:28:03.397Z,2.15
2023-05-07T14:30:29.880Z,2.30
2023-05-07T14:32:56.376Z,2.47
2023-05-07T14:35:24.943Z,2.33
2023-05-07T14:37:51.514Z,2.65
2023-05-07T14:40:18.016Z,2.20
2023-05-07T14:42:44.684Z,2.60
2023-05-07T14:45:11.702Z,2.53
2023-05-07T14:47:43.524Z,2.40
2023-05-07T14:50:10.268Z,2.20
2023-05-07T14:52:36.771Z,2.20
2023-05-07T14:55:04.967Z,2.83
2023-05-07T14:57:35.719Z,2.83
2023-05-07T15:00:09.790Z,3.30
2023-05-07T15:02:36.471Z,2.95
2023-05-07T15:05:03.008Z,3.10
2023-05-07T15:07:29.477Z,3.20
2023-05-07T15:09:56.180Z,2.83
2023-05-07T15:12:22.660Z,2.92
2023-05-07T15:14:49.171Z,3.25
2023-05-07T15:17:16.112Z,2.70
2023-05-07T15:19:43.540Z,2.47
2023-05-07T15:22:10.002Z,2.58
2023-05-07T15:24:36.464Z,2.85
2023-05-07T15:27:04.054Z,3.40
2023-05-07T15:29:30.528Z,3.15
2023-05-07T15:32:05.165Z,3.13
2023-05-07T15:34:40.466Z,3.40
2023-05-07T15:37:08.223Z,3.20
2023-05-07T15:39:35.744Z,2.83
2023-05-07T15:42:03.684Z,2.85
2023-05-07T15:44:40.544Z,2.80
2023-05-07T15:47:07.026Z,3.05
2023-05-07T15:49:33.552Z,3.28
2023-05-07T15:52:00.114Z,3.08
2023-05-07T15:54:26.678Z,2.78
2023-05-07T15:56:53.118Z,2.65
2023-05-07T15:59:21.736Z,2.80
2023-05-07T16:01:48.335Z,3.35
2023-05-07T16:04:15.173Z,3.13
2023-05-07T16:06:41.733Z,3.08
2023-05-07T16:09:10.333Z,2.95
2023-05-07T16:11:36.844Z,2.80
2023-05-07T16:14:10.279Z,2.70
2023-05-07T16:16:49.167Z,2.92
2023-05-07T16:19:15.890Z,2.92
2023-05-07T16:21:42.343Z,3.58
2023-05-07T16:24:15.048Z,3.00
2023-05-07T16:26:41.513Z,2.83
2023-05-07T16:29:08.414Z,2.70
2023-05-07T16:31:38.190Z,3.00
2023-05-07T16:34:05.850Z,3.10
2023-05-07T16:36:38.263Z,3.08
2023-05-07T16:39:04.797Z,2.70
2023-05-07T16:41:37.869Z,2.60
2023-05-07T16:44:04.510Z,3.00
2023-05-07T16:46:32.012Z,2.60
2023-05-07T16:48:58.494Z,2.83
2023-05-07T16:51:36.216Z,2.63
2023-05-07T16:54:03.148Z,2.90
2023-05-07T16:56:29.677Z,2.45
2023-05-07T16:58:56.101Z,2.40
2023-05-07T17:01:22.709Z,3.03
2023-05-07T17:03:49.287Z,3.25
2023-05-07T17:06:17.884Z,3.22
2023-05-07T17:08:45.428Z,2.80
2023-05-07T17:11:13.886Z,2.60
2023-05-07T17:13:43.916Z,2.60
2023-05-07T17:16:10.432Z,2.65
2023-05-07T17:18:37.092Z,2.45
2023-05-07T17:21:09.987Z,2.67
2023-05-07T17:23:36.493Z,2.40
2023-05-07T17:26:03.053Z,2.60
2023-05-07T17:28:30.583Z,2.97
2023-05-07T17:30:59.085Z,2.40
2023-05-07T17:33:25.868Z,3.00
2023-05-07T17:35:54.638Z,2.70
2023-05-07T17:38:21.126Z,3.13
2023-05-07T17:40:48.439Z,2.80
2023-05-07T17:43:15.683Z,2.83
2023-05-07T17:45:42.175Z,2.97
2023-05-07T17:48:09.774Z,3.33
2023-05-07T17:50:37.287Z,5.50
2023-05-07T17:53:05.816Z,11.85
2023-05-07T17:55:40.323Z,5.20
2023-05-07T17:58:07.210Z,5.85
2023-05-07T18:00:33.686Z,5.43
2023-05-07T18:03:01.636Z,3.30
2023-05-07T18:05:28.922Z,2.78
2023-05-07T18:07:57.411Z,2.90
2023-05-07T18:10:24.143Z,3.58
2023-05-07T18:12:52.788Z,3.33
2023-05-07T18:15:19.453Z,2.88
2023-05-07T18:17:50.207Z,2.70
2023-05-07T18:20:16.772Z,2.90
2023-05-07T18:22:43.239Z,3.53
2023-05-07T18:25:10.006Z,3.17
2023-05-07T18:27:38.618Z,2.40
2023-05-07T18:30:05.786Z,2.60
2023-05-07T18:32:32.366Z,3.80
2023-05-07T18:34:59.004Z,8.77
2023-05-07T18:37:26.818Z,3.40
2023-05-07T18:39:54.401Z,3.75
2023-05-07T18:42:20.928Z,2.70
2023-05-07T18:44:47.370Z,3.50
2023-05-07T18:47:13.957Z,2.78
2023-05-07T18:49:40.539Z,2.95
2023-05-07T18:52:07.093Z,3.00
2023-05-07T18:54:34.550Z,3.75
2023-05-07T18:57:01.033Z,3.00
2023-05-07T18:59:27.557Z,2.75
2023-05-07T19:01:56.318Z,3.50
2023-05-07T19:04:24.417Z,2.72
2023-05-07T19:06:51.098Z,3.10
2023-05-07T19:09:18.971Z,2.80
2023-05-07T19:11:46.586Z,3.05
2023-05-07T19:14:13.034Z,3.30
2023-05-07T19:16:41.579Z,3.55
2023-05-07T19:19:08.368Z,3.60
2023-05-07T19:21:41.058Z,4.43
2023-05-07T19:24:08.202Z,3.20
2023-05-07T19:26:34.721Z,4.40
2023-05-07T19:29:16.559Z,26.38
2023-05-07T19:31:46.324Z,3.13
2023-05-07T19:34:15.421Z,3.75
2023-05-07T19:36:42.182Z,2.85
2023-05-07T19:39:08.731Z,3.05
2023-05-07T19:41:35.282Z,2.80
2023-05-07T19:44:02.034Z,3.08
2023-05-07T19:46:28.931Z,4.20
2023-05-07T19:49:01.338Z,3.80
2023-05-07T19:51:32.298Z,4.05
2023-05-07T19:54:00.011Z,3.20
2023-05-07T19:56:26.553Z,3.47
2023-05-07T19:58:53.054Z,4.13
2023-05-07T20:01:19.640Z,3.30
2023-05-07T20:03:46.557Z,3.67
2023-05-07T20:06:13.557Z,3.75
2023-05-07T20:08:40.248Z,3.58
2023-05-07T20:11:14.190Z,4.25
2023-05-07T20:13:41.187Z,3.60
2023-05-07T20:16:09.856Z,3.78
2023-05-07T20:18:37.423Z,3.47
2023-05-07T20:21:04.924Z,3.80
2023-05-07T20:23:31.511Z,3.80
2023-05-07T20:25:58.191Z,4.03
2023-05-07T20:28:25.077Z,3.90
2023-05-07T20:30:51.600Z,3.50
2023-05-07T20:33:18.213Z,3.50
2023-05-07T20:35:45.092Z,3.80
2023-05-07T20:38:11.743Z,3.72
2023-05-07T20:40:38.344Z,3.35
2023-05-07T20:43:08.822Z,3.85
2023-05-07T20:45:35.527Z,3.78
2023-05-07T20:48:14.460Z,3.97
2023-05-07T20:50:41.124Z,3.63
2023-05-07T20:53:07.643Z,3.42
2023-05-07T20:55:34.159Z,3.40
2023-05-07T20:58:01.057Z,3.17
2023-05-07T21:00:27.906Z,3.22
2023-05-07T21:02:54.428Z,3.78
2023-05-07T21:05:21.093Z,3.30
2023-05-07T21:07:47.555Z,3.70
2023-05-07T21:10:14.212Z,3.85
2023-05-07T21:12:40.947Z,3.97
2023-05-07T21:15:08.153Z,3.67
2023-05-07T21:17:35.276Z,4.03
2023-05-07T21:20:03.682Z,4.00
2023-05-07T21:22:39.291Z,3.45
2023-05-07T21:25:06.112Z,4.00
2023-05-07T21:27:32.621Z,3.90
2023-05-07T21:30:04.265Z,3.97
2023-05-07T21:34:59.071Z,3.97
2023-05-07T21:37:25.541Z,4.25
2023-05-07T21:39:52.058Z,3.60
2023-05-07T21:42:18.788Z,3.72
2023-05-07T21:44:46.178Z,4.15
2023-05-07T21:47:12.709Z,4.10
2023-05-07T21:49:41.526Z,4.70
2023-05-07T21:52:16.265Z,4.25
2023-05-07T21:54:43.494Z,4.22
2023-05-07T21:57:10.298Z,4.22
2023-05-07T21:59:43.051Z,3.53
2023-05-07T22:02:09.511Z,4.15
2023-05-07T22:04:35.975Z,3.90
2023-05-07T22:07:02.434Z,4.20
2023-05-07T22:09:28.934Z,3.67
2023-05-07T22:11:55.590Z,3.75
2023-05-07T22:14:22.094Z,4.10
2023-05-07T22:16:48.610Z,4.38
2023-05-07T22:19:15.269Z,3.83
2023-05-07T22:21:41.873Z,3.72
2023-05-07T22:24:08.403Z,3.70
2023-05-07T22:26:34.848Z,3.63
2023-05-07T22:29:10.379Z,3.72
2023-05-07T22:31:36.905Z,3.60
2023-05-07T22:34:05.422Z,3.78
2023-05-07T22:36:32.294Z,3.70
2023-05-07T22:38:59.951Z,3.90
2023-05-07T22:41:26.548Z,3.22
2023-05-07T22:43:55.156Z,3.65
2023-05-07T22:46:21.692Z,3.72
2023-05-07T22:48:48.158Z,3.63
2023-05-07T22:51:14.805Z,3.80
2023-05-07T22:53:42.279Z,4.03
2023-05-07T22:56:10.123Z,3.45
2023-05-07T22:58:42.410Z,3.70
2023-05-07T23:01:13.958Z,3.83
2023-05-07T23:06:07.937Z,3.55
2023-05-07T23:08:35.211Z,3.53
2023-05-07T23:11:01.840Z,4.10
2023-05-07T23:13:28.437Z,3.85
2023-05-07T23:15:55.007Z,3.80
2023-05-07T23:18:24.611Z,3.10
2023-05-07T23:20:51.132Z,3.80
2023-05-07T23:23:17.811Z,4.25
2023-05-07T23:25:44.578Z,3.80
2023-05-07T23:28:11.057Z,3.92
2023-05-07T23:30:37.761Z,3.90
2023-05-07T23:33:04.348Z,4.15
2023-05-07T23:35:30.999Z,4.13
2023-05-07T23:37:58.654Z,4.15
2023-05-07T23:40:25.257Z,3.85
2023-05-07T23:42:51.789Z,4.13
2023-05-07T23:45:18.308Z,4.05
2023-05-07T23:47:44.811Z,3.97
2023-05-07T23:50:11.629Z,4.40
2023-05-07T23:52:38.339Z,4.47
2023-05-07T23:55:05.494Z,3.67
2023-05-07T23:57:32.090Z,4.40
